Time;durP1;ratioP1;P1;durP2;ratioP2;P2;SDS_P1;SDS_P2;PMS_P1;PMS_P2;Temp;Humidity;BMP_temperature;BMP_pressure;BME280_temperature;BME280_humidity;BME280_pressure;Samples;Min_cycle;Max_cycle;Signal;HPM_P1;HPM_P2
2024/04/14 00:02:22;;;;;;;1.20;1.10;;;;;;;16.24;56.72;100529.72;4489526;31;33336;-81
2024/04/14 00:04:52;;;;;;;0.40;0.40;;;;;;;16.35;56.33;100532.66;4451495;31;32988;-81
2024/04/14 00:07:19;;;;;;;0.10;0.10;;;;;;;16.27;56.80;100528.69;4488842;31;33817;-81
2024/04/14 00:09:46;;;;;;;0.28;0.28;;;;;;;16.33;56.58;100528.31;4474594;31;32040;-81
2024/04/14 00:12:13;;;;;;;0.70;0.70;;;;;;;16.35;56.58;100521.13;4465819;31;32415;-81
2024/04/14 00:14:41;;;;;;;4.78;0.77;;;;;;;16.41;56.39;100514.59;4488896;31;34872;-81
2024/04/14 00:17:08;;;;;;;1.45;1.00;;;;;;;16.40;56.54;100519.06;4466450;31;33270;-81
2024/04/14 00:19:35;;;;;;;0.13;0.13;;;;;;;16.54;56.10;100516.47;4474779;31;33168;-81
2024/04/14 00:22:02;;;;;;;0.32;0.30;;;;;;;16.59;56.03;100508.22;4474686;31;33260;-80
2024/04/14 00:24:28;;;;;;;0.30;0.30;;;;;;;16.53;56.21;100504.09;4495754;31;34250;-80
2024/04/14 00:26:55;;;;;;;1.65;1.00;;;;;;;16.58;56.09;100507.34;4476982;31;34932;-80
2024/04/14 00:29:21;;;;;;;1.33;0.77;;;;;;;16.63;56.21;100512.44;4478645;31;32420;-80
2024/04/14 00:31:48;;;;;;;4.05;0.50;;;;;;;16.76;55.65;100508.13;4481736;31;32125;-80
2024/04/14 00:34:15;;;;;;;0.22;0.22;;;;;;;16.80;55.24;100514.13;4478032;31;34395;-80
2024/04/14 00:36:42;;;;;;;0.98;0.90;;;;;;;16.52;56.18;100510.38;4492339;31;34045;-81
2024/04/14 00:39:12;;;;;;;0.30;0.30;;;;;;;16.37;56.95;100508.56;4465719;31;33607;-80
2024/04/14 00:41:39;;;;;;;0.40;0.40;;;;;;;16.33;57.12;100504.34;4466225;31;32733;-80
2024/04/14 00:44:06;;;;;;;3.15;0.85;;;;;;;16.28;57.16;100503.75;4480193;31;33073;-80
2024/04/14 00:46:32;;;;;;;0.40;0.40;;;;;;;16.27;57.04;100505.56;4464870;31;34937;-80
2024/04/14 00:48:59;;;;;;;3.00;1.37;;;;;;;16.17;57.55;100504.34;4488740;31;34404;-80
2024/04/14 00:51:26;;;;;;;1.05;0.80;;;;;;;16.12;57.75;100501.94;4478027;31;32400;-79
2024/04/14 00:53:52;;;;;;;0.82;0.82;;;;;;;16.28;57.44;100498.41;4490176;31;34493;-79
2024/04/14 00:56:21;;;;;;;0.20;0.20;;;;;;;16.38;57.21;100488.97;4465762;31;33159;-81
2024/04/14 00:58:48;;;;;;;0.25;0.25;;;;;;;16.39;56.91;100490.69;4478278;31;32748;-80
2024/04/14 01:01:16;;;;;;;0.00;0.00;;;;;;;16.36;57.03;100485.53;4476659;31;32136;-80
2024/04/14 01:03:42;;;;;;;2.03;0.70;;;;;;;16.26;57.34;100489.66;4490216;31;34087;-80
2024/04/14 01:06:09;;;;;;;0.22;0.22;;;;;;;16.28;57.47;100485.09;4480149;31;32957;-80
2024/04/14 01:08:35;;;;;;;0.52;0.52;;;;;;;16.35;56.99;100483.81;4496636;31;33828;-80
2024/04/14 01:11:03;;;;;;;0.10;0.10;;;;;;;16.12;57.73;100485.97;4479398;31;34006;-80
2024/04/14 01:13:29;;;;;;;4.07;1.20;;;;;;;16.10;57.84;100481.69;4477860;31;33883;-80
2024/04/14 01:15:56;;;;;;;0.45;0.45;;;;;;;16.25;57.32;100483.47;4493768;31;34099;-80
2024/04/14 01:18:22;;;;;;;0.85;0.85;;;;;;;16.18;57.58;100487.41;4478411;31;33836;-81
2024/04/14 01:20:49;;;;;;;0.32;0.32;;;;;;;16.14;57.42;100483.19;4478602;31;32559;-81
2024/04/14 01:23:15;;;;;;;2.75;0.30;;;;;;;16.08;57.57;100484.41;4480697;31;33963;-81
2024/04/14 01:25:42;;;;;;;0.73;0.68;;;;;;;16.09;57.48;100483.47;4461499;31;34445;-81
2024/04/14 01:28:09;;;;;;;1.27;0.37;;;;;;;16.00;57.75;100476.00;4478492;31;32409;-81
2024/04/14 01:30:35;;;;;;;0.32;0.32;;;;;;;16.08;57.47;100479.06;4476383;31;32917;-81
2024/04/14 01:33:02;;;;;;;0.52;0.35;;;;;;;16.04;57.88;100480.19;4466219;31;34854;-81
2024/04/14 01:35:28;;;;;;;0.10;0.10;;;;;;;16.04;57.93;100471.34;4478394;31;33391;-81
2024/04/14 01:37:55;;;;;;;0.57;0.55;;;;;;;16.11;57.26;100470.06;4473924;31;32949;-82
2024/04/14 01:40:22;;;;;;;0.32;0.32;;;;;;;16.01;57.46;100469.72;4466701;31;33418;-82
2024/04/14 01:42:48;;;;;;;0.55;0.47;;;;;;;16.03;57.61;100469.62;4466738;31;33646;-81
2024/04/14 01:45:16;;;;;;;0.60;0.60;;;;;;;15.97;57.70;100464.66;4478383;31;34912;-81
2024/04/14 01:47:43;;;;;;;0.20;0.20;;;;;;;15.83;58.03;100463.59;4451473;31;32599;-82
2024/04/14 01:50:09;;;;;;;2.97;1.33;;;;;;;15.80;58.22;100460.25;4477882;31;32008;-81
2024/04/14 01:52:37;;;;;;;0.15;0.15;;;;;;;15.93;57.74;100466.63;4465156;31;32559;-81
2024/04/14 01:55:04;;;;;;;0.13;0.13;;;;;;;15.83;58.08;100462.75;4477389;31;32817;-81
2024/04/14 01:57:32;;;;;;;0.37;0.37;;;;;;;15.71;58.20;100469.59;4474627;31;35361;-81
2024/04/14 02:00:01;;;;;;;0.77;0.60;;;;;;;15.76;57.97;100464.00;4479725;31;34691;-81
2024/04/14 02:02:38;;;;;;;0.40;0.40;;;;;;;15.67;58.08;100464.53;4478601;31;34749;-80
2024/04/14 02:05:05;;;;;;;1.50;1.40;;;;;;;15.29;59.29;100478.03;4492189;31;34617;-80
2024/04/14 02:07:32;;;;;;;0.57;0.57;;;;;;;15.46;58.86;100466.50;4476086;31;32359;-81
2024/04/14 02:10:01;;;;;;;0.80;0.75;;;;;;;15.49;58.72;100471.66;4464029;31;31680;-81
2024/04/14 02:12:29;;;;;;;0.37;0.22;;;;;;;15.32;58.92;100461.91;4477778;31;34240;-81
2024/04/14 02:14:55;;;;;;;0.60;0.45;;;;;;;15.27;59.09;100466.59;4476057;31;32641;-81
2024/04/14 02:17:22;;;;;;;1.55;1.20;;;;;;;15.17;59.30;100478.66;4479026;31;34214;-81
2024/04/14 02:19:49;;;;;;;0.30;0.30;;;;;;;15.26;59.13;100464.91;4463140;31;32217;-80
2024/04/14 02:22:15;;;;;;;0.20;0.20;;;;;;;15.31;58.73;100457.53;4492186;31;33218;-80
2024/04/14 02:24:45;;;;;;;0.30;0.30;;;;;;;15.32;58.71;100461.91;4489909;31;34005;-80
2024/04/14 02:27:12;;;;;;;0.65;0.52;;;;;;;15.22;58.91;100468.66;4479477;31;34002;-81
2024/04/14 02:29:38;;;;;;;0.43;0.30;;;;;;;15.15;59.21;100461.94;4461854;31;34488;-83
2024/04/14 02:32:05;;;;;;;0.35;0.30;;;;;;;15.24;58.86;100469.41;4477162;31;32703;-82
2024/04/14 02:34:32;;;;;;;4.15;1.33;;;;;;;15.23;59.03;100467.69;4464389;32;33367;-82
2024/04/14 02:36:58;;;;;;;0.65;0.40;;;;;;;15.28;58.71;100449.69;4477689;31;33429;-82
2024/04/14 02:39:25;;;;;;;0.35;0.35;;;;;;;15.19;58.95;100447.50;4467293;31;33278;-82
2024/04/14 02:41:52;;;;;;;1.65;0.90;;;;;;;15.33;58.56;100450.31;4467292;31;34974;-82
2024/04/14 02:44:19;;;;;;;0.08;0.08;;;;;;;15.22;58.81;100442.91;4489615;31;34746;-80
2024/04/14 02:46:45;;;;;;;0.20;0.20;;;;;;;15.03;59.34;100448.31;4479022;31;35173;-80
2024/04/14 02:49:12;;;;;;;0.43;0.43;;;;;;;15.08;59.00;100448.09;4478555;31;33526;-80
2024/04/14 02:51:41;;;;;;;0.20;0.20;;;;;;;15.02;59.12;100446.59;4475768;31;33954;-80
2024/04/14 02:54:08;;;;;;;0.40;0.40;;;;;;;15.03;59.13;100442.16;4479489;31;34504;-80
2024/04/14 02:56:35;;;;;;;0.40;0.40;;;;;;;15.09;58.98;100444.47;4470966;31;35139;-81
2024/04/14 02:59:01;;;;;;;3.00;1.95;;;;;;;15.11;58.76;100431.97;4464925;31;32218;-81
2024/04/14 03:01:28;;;;;;;0.17;0.17;;;;;;;15.08;58.77;100440.97;4476908;31;32305;-81
2024/04/14 03:03:55;;;;;;;0.20;0.20;;;;;;;15.07;58.68;100433.94;4463473;31;33395;-80
2024/04/14 03:06:21;;;;;;;0.77;0.70;;;;;;;14.98;58.86;100439.72;4475228;31;34453;-80
2024/04/14 03:08:48;;;;;;;0.20;0.20;;;;;;;14.71;59.88;100438.47;4478434;31;32777;-80
2024/04/14 03:11:15;;;;;;;0.30;0.30;;;;;;;14.62;60.34;100450.41;4453242;31;35445;-80
2024/04/14 03:13:41;;;;;;;0.73;0.25;;;;;;;14.62;60.29;100438.94;4479101;31;35108;-80
2024/04/14 03:16:09;;;;;;;0.22;0.22;;;;;;;14.53;60.52;100435.81;4477926;31;34375;-80
2024/04/14 03:18:36;;;;;;;0.10;0.10;;;;;;;14.56;60.19;100446.28;4477301;31;32541;-80
2024/04/14 03:21:03;;;;;;;1.25;1.15;;;;;;;14.70;59.37;100432.28;4466455;31;32839;-80
2024/04/14 03:23:31;;;;;;;0.82;0.52;;;;;;;14.64;59.94;100429.97;4462721;31;33538;-80
2024/04/14 03:25:58;;;;;;;0.00;0.00;;;;;;;14.49;60.53;100436.91;4471281;31;32051;-80
2024/04/14 03:28:25;;;;;;;0.73;0.73;;;;;;;14.80;59.21;100438.00;4474120;31;31848;-80
2024/04/14 03:30:57;;;;;;;0.80;0.55;;;;;;;14.59;59.68;100432.84;4476208;31;34109;-80
2024/04/14 03:33:25;;;;;;;0.05;0.05;;;;;;;14.83;58.47;100436.06;4465881;31;32719;-80
2024/04/14 03:36:03;;;;;;;1.62;0.57;;;;;;;14.65;59.33;100436.13;4463577;31;32497;-81
2024/04/14 03:38:32;;;;;;;0.55;0.55;;;;;;;14.62;59.73;100436.28;4463737;31;35396;-81
2024/04/14 03:40:59;;;;;;;0.35;0.35;;;;;;;14.49;60.09;100433.41;4490511;31;33967;-81
2024/04/14 03:43:28;;;;;;;0.03;0.03;;;;;;;14.51;59.79;100432.38;4464835;31;32749;-81
2024/04/14 03:45:54;;;;;;;0.32;0.32;;;;;;;14.45;60.08;100429.12;4462220;31;34392;-81
2024/04/14 03:48:23;;;;;;;0.10;0.10;;;;;;;14.55;59.76;100420.66;4477900;31;34098;-81
2024/04/14 03:50:50;;;;;;;0.30;0.30;;;;;;;14.48;59.94;100429.87;4478628;31;33226;-81
2024/04/14 03:53:16;;;;;;;0.20;0.20;;;;;;;14.36;60.27;100425.12;4478026;31;33300;-81
2024/04/14 03:55:44;;;;;;;0.20;0.20;;;;;;;14.35;60.31;100423.41;4490787;31;32642;-81
2024/04/14 03:58:10;;;;;;;0.20;0.13;;;;;;;14.25;60.51;100427.47;4476216;31;33406;-81
2024/04/14 04:00:37;;;;;;;0.40;0.40;;;;;;;14.22;60.69;100420.50;4464708;31;34331;-81
2024/04/14 04:03:04;;;;;;;0.20;0.20;;;;;;;14.18;61.03;100426.03;4465985;31;33025;-82
2024/04/14 04:05:31;;;;;;;0.10;0.10;;;;;;;14.16;60.56;100426.09;4463467;31;32757;-82
2024/04/14 04:07:59;;;;;;;0.30;0.30;;;;;;;14.38;59.93;100425.03;4466777;31;32185;-82
2024/04/14 04:10:27;;;;;;;0.43;0.43;;;;;;;14.34;59.99;100432.31;4477503;31;34314;-82
2024/04/14 04:12:53;;;;;;;0.20;0.20;;;;;;;14.31;60.08;100427.16;4479183;31;34294;-82
2024/04/14 04:15:20;;;;;;;2.60;0.85;;;;;;;14.16;60.46;100426.09;4478881;31;33692;-82
2024/04/14 04:17:48;;;;;;;0.10;0.00;;;;;;;14.28;60.33;100433.47;4477993;31;32211;-82
2024/04/14 04:20:15;;;;;;;0.10;0.10;;;;;;;14.19;60.87;100428.59;4480616;31;32711;-82
2024/04/14 04:22:41;;;;;;;0.05;0.05;;;;;;;14.23;60.73;100424.00;4465333;31;33029;-82
2024/04/14 04:25:08;;;;;;;1.75;0.95;;;;;;;14.31;60.74;100424.50;4477391;31;32132;-82
2024/04/14 04:27:35;;;;;;;0.43;0.43;;;;;;;14.34;60.40;100419.91;4493234;31;33326;-82
2024/04/14 04:30:02;;;;;;;1.42;1.00;;;;;;;14.27;60.82;100422.91;4479854;31;33907;-82
2024/04/14 04:32:29;;;;;;;0.70;0.50;;;;;;;14.25;61.04;100423.00;4463033;31;33493;-82
2024/04/14 04:34:55;;;;;;;0.20;0.20;;;;;;;14.37;60.42;100421.53;4474948;31;33730;-81
2024/04/14 04:37:21;;;;;;;2.72;1.75;;;;;;;14.15;61.23;100416.44;4471688;31;33326;-81
2024/04/14 04:39:48;;;;;;;1.65;0.85;;;;;;;14.29;61.14;100423.69;4474403;31;34710;-81
2024/04/14 04:42:15;;;;;;;0.30;0.30;;;;;;;14.36;61.27;100414.50;4477713;31;32884;-81
2024/04/14 04:44:41;;;;;;;0.32;0.32;;;;;;;14.51;60.73;100411.09;4469540;31;32641;-81
2024/04/14 04:47:08;;;;;;;1.40;0.70;;;;;;;14.55;60.77;100420.66;4461658;31;32119;-81
2024/04/14 04:49:35;;;;;;;0.10;0.10;;;;;;;14.66;60.75;100416.59;4462107;31;32878;-81
2024/04/14 04:52:01;;;;;;;0.65;0.65;;;;;;;14.77;60.41;100411.59;4476646;31;32983;-81
2024/04/14 04:54:28;;;;;;;0.05;0.05;;;;;;;15.19;59.53;100405.84;4477746;31;33944;-81
2024/04/14 04:56:54;;;;;;;3.15;1.27;;;;;;;15.02;60.02;100398.75;4475397;31;32264;-82
2024/04/14 04:59:22;;;;;;;0.40;0.40;;;;;;;14.96;60.87;100407.03;4475867;31;33414;-81
2024/04/14 05:01:48;;;;;;;1.08;0.90;;;;;;;15.03;60.98;100407.56;4463751;31;35276;-82
2024/04/14 05:04:15;;;;;;;4.87;0.32;;;;;;;15.14;60.97;100401.69;4479456;31;33988;-82
2024/04/14 05:06:41;;;;;;;2.28;1.00;;;;;;;15.25;60.78;100402.00;4473000;31;33468;-82
2024/04/14 05:09:08;;;;;;;1.77;0.95;;;;;;;15.51;60.26;100392.59;4449780;31;33228;-82
2024/04/14 05:11:35;;;;;;;0.50;0.50;;;;;;;15.76;59.84;100395.66;4477881;31;32638;-82
2024/04/14 05:14:02;;;;;;;0.15;0.15;;;;;;;15.94;59.81;100395.56;4475196;31;33917;-82
2024/04/14 05:16:29;;;;;;;0.52;0.52;;;;;;;16.26;59.35;100391.06;4466823;31;33103;-82
2024/04/14 05:18:56;;;;;;;0.50;0.50;;;;;;;16.23;59.86;100389.41;4477911;31;33683;-81
2024/04/14 05:21:22;;;;;;;0.20;0.20;;;;;;;16.39;60.06;100389.41;4466323;31;34207;-82
2024/04/14 05:23:49;;;;;;;3.20;2.05;;;;;;;16.34;60.38;100391.50;4462659;31;33174;-82
2024/04/14 05:26:16;;;;;;;0.40;0.40;;;;;;;16.33;60.75;100392.41;4491495;31;32062;-82
2024/04/14 05:28:42;;;;;;;0.50;0.50;;;;;;;16.72;nan;100396.41;4464678;31;32412;-81
2024/04/14 05:31:09;;;;;;;0.20;0.20;;;;;;;16.77;60.20;100394.31;4472129;31;33854;-81
2024/04/14 05:33:35;;;;;;;1.62;0.68;;;;;;;17.20;58.91;100397.03;4489319;31;33542;-81
2024/04/14 05:36:02;;;;;;;0.70;0.15;;;;;;;17.31;59.10;100399.91;4488277;31;34455;-81
2024/04/14 05:38:31;;;;;;;0.30;0.30;;;;;;;17.45;59.08;100394.56;4479703;31;34591;-81
2024/04/14 05:40:58;;;;;;;0.60;0.60;;;;;;;17.59;59.13;100393.69;4478253;31;33623;-81
2024/04/14 05:43:24;;;;;;;0.75;0.50;;;;;;;17.70;59.31;100390.31;4475729;31;33265;-81
2024/04/14 05:45:51;;;;;;;0.75;0.75;;;;;;;17.64;59.14;100392.44;4463770;31;32510;-81
2024/04/14 05:48:18;;;;;;;0.73;0.45;;;;;;;18.04;59.06;100389.91;4490526;31;35430;-81
2024/04/14 05:50:44;;;;;;;0.65;0.65;;;;;;;18.17;58.90;100381.94;4477313;31;33053;-81
2024/04/14 05:53:12;;;;;;;0.20;0.20;;;;;;;18.39;58.96;100389.41;4469242;32;32270;-81
2024/04/14 05:55:39;;;;;;;1.20;0.85;;;;;;;18.53;59.29;100386.66;4489802;31;32308;-81
2024/04/14 05:58:05;;;;;;;0.40;0.40;;;;;;;18.87;58.07;100376.34;4490782;31;34614;-82
2024/04/14 06:00:35;;;;;;;0.98;0.65;;;;;;;18.98;57.44;100372.94;4458586;31;35466;-81
2024/04/14 06:03:02;;;;;;;0.82;0.82;;;;;;;19.24;56.45;100373.81;4480136;31;32444;-81
2024/04/14 06:05:28;;;;;;;0.20;0.20;;;;;;;19.55;57.13;100369.78;4490497;31;35934;-82
2024/04/14 06:07:55;;;;;;;0.20;0.20;;;;;;;19.83;55.42;100368.66;4476238;31;34091;-81
2024/04/14 06:10:22;;;;;;;0.35;0.35;;;;;;;20.08;53.82;100373.94;4476004;31;34644;-81
2024/04/14 06:12:48;;;;;;;0.70;0.70;;;;;;;20.04;51.68;100369.78;4492381;31;33904;-80
2024/04/14 06:15:15;;;;;;;1.65;0.35;;;;;;;20.39;50.17;100366.28;4460138;31;32832;-80
2024/04/14 06:17:44;;;;;;;7.12;1.58;;;;;;;20.49;50.41;100367.31;4477334;31;33600;-81
2024/04/14 06:20:10;;;;;;;3.70;1.27;;;;;;;20.90;49.66;100365.97;4475894;31;33533;-80
2024/04/14 06:22:37;;;;;;;0.40;0.35;;;;;;;21.20;47.83;100363.56;4465812;31;32896;-80
2024/04/14 06:25:04;;;;;;;0.98;0.90;;;;;;;21.57;47.95;100365.19;4476609;31;32422;-81
2024/04/14 06:27:31;;;;;;;0.20;0.20;;;;;;;21.85;47.95;100366.50;4475694;31;33826;-80
2024/04/14 06:29:58;;;;;;;1.87;1.27;;;;;;;21.84;47.89;100362.94;4478388;31;34028;-81
2024/04/14 06:32:25;;;;;;;0.45;0.45;;;;;;;21.72;47.25;100356.72;4478092;31;33882;-80
2024/04/14 06:34:51;;;;;;;0.50;0.50;;;;;;;21.76;46.65;100359.19;4476104;31;34168;-84
2024/04/14 06:37:18;;;;;;;2.30;1.52;;;;;;;21.71;47.11;100365.78;4464598;31;33411;-81
2024/04/14 06:39:45;;;;;;;0.62;0.62;;;;;;;21.89;46.75;100359.88;4476684;31;34181;-82
2024/04/14 06:42:13;;;;;;;0.57;0.22;;;;;;;21.91;46.42;100360.59;4477760;31;33546;-85
2024/04/14 06:44:39;;;;;;;0.65;0.62;;;;;;;22.37;45.74;100356.81;4488970;31;32023;-82
2024/04/14 06:47:06;;;;;;;0.20;0.20;;;;;;;22.68;45.15;100353.22;4457545;31;33954;-81
2024/04/14 06:49:33;;;;;;;1.15;1.08;;;;;;;22.72;44.86;100353.81;4479086;31;32791;-80
2024/04/14 06:51:59;;;;;;;0.50;0.50;;;;;;;22.87;44.11;100341.72;4490211;31;33965;-80
2024/04/14 06:54:26;;;;;;;0.98;0.95;;;;;;;22.64;44.48;100346.38;4489232;31;31507;-80
2024/04/14 06:56:52;;;;;;;1.33;1.08;;;;;;;23.06;44.24;100345.53;4476934;31;32443;-81
2024/04/14 06:59:19;;;;;;;0.47;0.47;;;;;;;23.37;42.62;100336.47;4490642;31;33925;-81
2024/04/14 07:01:46;;;;;;;0.20;0.20;;;;;;;22.99;43.73;100342.53;4474047;31;34184;-81
2024/04/14 07:04:12;;;;;;;1.15;1.05;;;;;;;23.16;43.77;100347.28;4486483;31;33523;-80
2024/04/14 07:06:39;;;;;;;0.60;0.60;;;;;;;23.46;42.91;100349.13;4490251;31;34081;-81
2024/04/14 07:09:05;;;;;;;1.08;0.45;;;;;;;23.42;42.85;100344.16;4487702;31;34869;-80
2024/04/14 07:11:32;;;;;;;0.70;0.43;;;;;;;23.89;43.01;100347.16;4479061;31;32718;-81
2024/04/14 07:13:58;;;;;;;1.52;1.42;;;;;;;23.98;41.90;100347.19;4476673;31;34025;-80
2024/04/14 07:16:25;;;;;;;2.75;1.67;;;;;;;23.61;42.95;100346.06;4474252;31;33122;-80
2024/04/14 07:18:52;;;;;;;0.50;0.50;;;;;;;23.91;42.58;100345.16;4461964;31;32994;-81
2024/04/14 07:21:18;;;;;;;1.17;0.85;;;;;;;23.64;43.08;100345.81;4493671;31;33729;-81
2024/04/14 07:23:45;;;;;;;0.52;0.52;;;;;;;23.18;44.73;100345.34;4467017;31;33675;-81
2024/04/14 07:26:12;;;;;;;0.62;0.52;;;;;;;23.16;44.16;100346.44;4494905;31;32993;-81
2024/04/14 07:28:38;;;;;;;0.40;0.40;;;;;;;22.56;45.73;100353.44;4464571;31;33472;-81
2024/04/14 07:31:05;;;;;;;0.32;0.32;;;;;;;23.01;45.16;100351.31;4464693;31;34215;-83
2024/04/14 07:33:32;;;;;;;1.87;0.93;;;;;;;23.68;44.12;100345.37;4469432;31;34395;-83
2024/04/14 07:35:58;;;;;;;0.50;0.50;;;;;;;23.78;43.70;100345.41;4475065;31;35297;-81
2024/04/14 07:38:26;;;;;;;4.07;1.35;;;;;;;23.75;43.48;100349.25;4477422;31;32681;-81
2024/04/14 07:40:52;;;;;;;1.90;0.88;;;;;;;23.81;43.65;100344.28;4488677;31;33477;-81
2024/04/14 07:43:19;;;;;;;0.45;0.45;;;;;;;24.03;43.02;100338.66;4473439;31;31982;-81
2024/04/14 07:45:46;;;;;;;2.72;0.57;;;;;;;24.25;43.42;100334.81;4491174;31;34763;-80
2024/04/14 07:48:12;;;;;;;2.12;1.48;;;;;;;24.27;42.71;100333.69;4476922;31;34006;-81
2024/04/14 07:50:43;;;;;;;2.20;1.35;;;;;;;24.39;42.23;100337.12;4480238;31;32432;-81
2024/04/14 07:53:10;;;;;;;0.85;0.85;;;;;;;24.38;42.21;100337.28;4478025;31;33509;-81
2024/04/14 07:55:36;;;;;;;3.37;0.85;;;;;;;24.14;43.38;100343.91;4475833;31;33936;-81
2024/04/14 07:58:03;;;;;;;0.52;0.52;;;;;;;24.42;42.36;100338.69;4473366;31;33900;-81
2024/04/14 08:00:30;;;;;;;0.40;0.40;;;;;;;24.22;42.62;100333.28;4478338;31;33768;-81
2024/04/14 08:02:56;;;;;;;0.50;0.50;;;;;;;24.56;43.03;100323.91;4477269;31;32200;-81
2024/04/14 08:05:23;;;;;;;3.67;0.60;;;;;;;24.61;42.63;100330.59;4476040;31;33142;-81
2024/04/14 08:07:50;;;;;;;0.77;0.55;;;;;;;24.88;41.22;100328.97;4477762;31;35662;-81
2024/04/14 08:10:16;;;;;;;1.75;1.20;;;;;;;25.71;40.86;100325.34;4473840;31;35229;-81
2024/04/14 08:12:43;;;;;;;1.20;1.10;;;;;;;25.97;40.74;100325.50;4488623;31;34024;-81
2024/04/14 08:15:09;;;;;;;0.60;0.60;;;;;;;25.54;40.93;100318.03;4489270;31;34067;-81
2024/04/14 08:17:36;;;;;;;0.40;0.40;;;;;;;25.48;40.98;100322.19;4465508;31;33002;-81
2024/04/14 08:20:03;;;;;;;0.75;0.65;;;;;;;25.77;40.26;100319.34;4476440;31;33561;-82
2024/04/14 08:22:30;;;;;;;0.65;0.52;;;;;;;25.65;40.89;100309.75;4475652;31;32778;-81
2024/04/14 08:24:56;;;;;;;0.98;0.90;;;;;;;25.53;41.14;100316.34;4488824;31;34722;-82
2024/04/14 08:27:24;;;;;;;1.52;0.93;;;;;;;26.00;40.15;100308.09;4467596;31;32960;-82
2024/04/14 08:29:51;;;;;;;0.15;0.15;;;;;;;25.97;40.36;100303.00;4489103;31;34547;-83
2024/04/14 08:32:17;;;;;;;0.52;0.52;;;;;;;26.72;40.20;100303.50;4474098;31;33549;-86
2024/04/14 08:34:44;;;;;;;5.37;1.45;;;;;;;26.88;40.20;100298.19;4472596;31;32599;-84
2024/04/14 08:37:10;;;;;;;0.57;0.47;;;;;;;26.84;38.19;100295.97;4477035;31;33185;-84
2024/04/14 08:39:37;;;;;;;0.88;0.88;;;;;;;27.15;37.73;100297.16;4456807;31;34243;-84
2024/04/14 08:42:05;;;;;;;1.37;0.93;;;;;;;27.05;37.46;100299.13;4475663;31;34714;-85
2024/04/14 08:44:36;;;;;;;0.88;0.55;;;;;;;26.56;38.55;100298.81;4479438;31;34953;-85
2024/04/14 08:47:04;;;;;;;0.73;0.73;;;;;;;26.83;38.45;100294.28;4465936;31;34984;-84
2024/04/14 08:49:31;;;;;;;0.95;0.95;;;;;;;26.98;38.95;100298.06;4480078;31;33567;-84
2024/04/14 08:51:57;;;;;;;0.50;0.50;;;;;;;27.27;38.40;100289.59;4478121;31;31871;-84
2024/04/14 08:54:25;;;;;;;0.60;0.60;;;;;;;27.62;37.58;100291.25;4478396;31;33843;-85
2024/04/14 08:56:55;;;;;;;6.40;1.15;;;;;;;27.57;37.73;100290.91;4478777;31;34006;-85
2024/04/14 08:59:25;;;;;;;1.95;0.73;;;;;;;27.47;37.87;100292.91;4463701;31;33269;-85
2024/04/14 09:01:52;;;;;;;0.93;0.85;;;;;;;27.98;37.99;100293.75;4467867;31;34630;-85
2024/04/14 09:04:20;;;;;;;0.40;0.40;;;;;;;28.03;37.36;100297.66;4476937;31;33540;-85
2024/04/14 09:06:47;;;;;;;0.85;0.57;;;;;;;28.23;35.07;100294.63;4481362;31;34267;-85
2024/04/14 09:09:14;;;;;;;1.58;1.12;;;;;;;27.85;35.72;100293.38;4480390;31;32989;-85
2024/04/14 09:11:56;;;;;;;1.17;0.80;;;;;;;27.93;35.41;100296.97;4479884;31;31865;-85
2024/04/14 09:14:23;;;;;;;0.62;0.62;;;;;;;27.68;35.99;100295.16;4477973;31;33570;-84
2024/04/14 09:16:50;;;;;;;1.40;0.93;;;;;;;27.82;36.61;100289.13;4464621;31;35309;-85
2024/04/14 09:19:20;;;;;;;7.97;0.80;;;;;;;28.43;35.09;100279.69;4480112;31;34517;-85
2024/04/14 09:21:47;;;;;;;0.28;0.28;;;;;;;28.32;35.46;100289.00;4490769;31;33434;-84
2024/04/14 09:24:14;;;;;;;1.58;0.80;;;;;;;28.58;34.42;100279.84;4493056;31;33709;-85
2024/04/14 09:26:40;;;;;;;0.82;0.82;;;;;;;28.58;34.77;100288.00;4475594;31;33342;-85
2024/04/14 09:29:08;;;;;;;0.90;0.52;;;;;;;28.72;34.92;100286.44;4459792;31;33587;-85
2024/04/14 09:31:35;;;;;;;0.50;0.50;;;;;;;28.53;35.15;100287.66;4476565;31;31884;-85
2024/04/14 09:34:04;;;;;;;0.28;0.28;;;;;;;28.84;34.22;100280.50;4465932;31;32774;-84
2024/04/14 09:36:31;;;;;;;0.25;0.25;;;;;;;29.40;34.53;100274.22;4476655;31;34589;-85
2024/04/14 09:38:59;;;;;;;0.75;0.68;;;;;;;29.29;33.88;100270.87;4491473;31;33655;-85
2024/04/14 09:41:27;;;;;;;0.65;0.65;;;;;;;29.26;33.54;100271.22;4471749;31;33183;-85
2024/04/14 09:43:54;;;;;;;0.77;0.62;;;;;;;29.02;34.18;100264.00;4490775;31;34626;-85
2024/04/14 09:46:21;;;;;;;9.23;0.75;;;;;;;29.84;33.10;100267.16;4462674;31;34593;-85
2024/04/14 09:48:48;;;;;;;0.35;0.30;;;;;;;30.35;32.31;100262.03;4481318;31;32368;-85
2024/04/14 09:51:15;;;;;;;0.60;0.32;;;;;;;30.26;31.53;100263.16;4463290;31;34773;-85
2024/04/14 09:53:42;;;;;;;1.70;1.23;;;;;;;30.26;32.29;100257.69;4476116;31;32386;-85
2024/04/14 09:56:09;;;;;;;0.57;0.52;;;;;;;30.04;32.20;100255.78;4466468;31;34946;-85
2024/04/14 09:58:36;;;;;;;0.80;0.80;;;;;;;30.23;32.59;100251.75;4476356;31;32689;-85
2024/04/14 10:01:06;;;;;;;0.45;0.45;;;;;;;30.66;30.93;100241.13;4492862;31;33550;-85
2024/04/14 10:03:34;;;;;;;0.47;0.47;;;;;;;30.99;30.56;100230.72;4459396;31;33249;-85
2024/04/14 10:06:01;;;;;;;0.80;0.70;;;;;;;30.83;29.87;100227.16;4479668;31;33019;-85
2024/04/14 10:08:32;;;;;;;4.30;0.55;;;;;;;31.18;29.91;100230.16;4476486;31;33753;-82
2024/04/14 10:11:04;;;;;;;0.45;0.43;;;;;;;31.57;27.40;100231.69;4452961;31;32664;-82
2024/04/14 10:13:46;;;;;;;0.50;0.40;;;;;;;31.17;26.64;100223.00;4476345;31;34609;-82
2024/04/14 10:16:16;;;;;;;0.50;0.50;;;;;;;30.68;27.62;100217.28;4476942;31;34043;-86
2024/04/14 10:18:44;;;;;;;0.45;0.40;;;;;;;31.01;27.26;100218.62;4479678;31;34504;-83
2024/04/14 10:21:18;;;;;;;0.60;0.60;;;;;;;30.91;27.89;100215.34;4475417;31;33493;-83
2024/04/14 10:23:56;;;;;;;0.55;0.52;;;;;;;31.23;29.35;100227.69;4478678;31;33657;-83
2024/04/14 10:26:23;;;;;;;0.28;0.28;;;;;;;31.60;25.98;100218.50;4467943;31;33490;-82
2024/04/14 10:28:53;;;;;;;25.90;1.95;;;;;;;31.68;25.64;100206.63;4463061;31;32417;-83
2024/04/14 10:31:30;;;;;;;11.63;0.80;;;;;;;31.81;26.08;100208.62;4478137;31;33030;-83
2024/04/14 10:34:04;;;;;;;0.73;0.40;;;;;;;31.99;25.52;100200.00;4480955;31;33957;-83
2024/04/14 10:36:30;;;;;;;2.03;1.20;;;;;;;32.11;24.50;100201.19;4476147;31;33857;-83
2024/04/14 10:38:57;;;;;;;10.13;0.62;;;;;;;32.13;25.46;100202.66;4468367;31;33174;-83
2024/04/14 10:41:24;;;;;;;0.95;0.85;;;;;;;32.08;24.33;100201.56;4477045;31;32848;-83
2024/04/14 10:43:50;;;;;;;0.73;0.73;;;;;;;32.50;24.15;100197.09;4468586;31;33296;-83
2024/04/14 10:46:17;;;;;;;1.02;0.32;;;;;;;32.13;24.58;100196.34;4459479;31;34746;-83
2024/04/14 10:48:44;;;;;;;0.77;0.65;;;;;;;32.49;25.21;100198.12;4471935;31;33197;-83
2024/04/14 10:51:11;;;;;;;0.60;0.60;;;;;;;32.20;22.02;100197.25;4493019;31;34271;-82
2024/04/14 10:53:38;;;;;;;0.93;0.62;;;;;;;31.73;23.99;100187.78;4465723;31;35383;-82
2024/04/14 10:56:06;;;;;;;0.55;0.55;;;;;;;31.86;24.32;100184.38;4476387;31;32644;-82
2024/04/14 10:58:33;;;;;;;1.05;0.95;;;;;;;32.21;25.28;100177.09;4464107;31;32738;-82
2024/04/14 11:01:02;;;;;;;0.82;0.70;;;;;;;32.31;24.85;100174.84;4462469;31;34327;-82
2024/04/14 11:03:29;;;;;;;0.10;0.10;;;;;;;32.39;24.90;100173.06;4470380;32;33084;-83
2024/04/14 11:05:58;;;;;;;4.37;0.43;;;;;;;32.30;25.25;100164.97;4476889;31;34678;-83
2024/04/14 11:08:25;;;;;;;0.15;0.15;;;;;;;32.00;24.52;100168.91;4464250;31;33040;-82
2024/04/14 11:10:52;;;;;;;0.50;0.50;;;;;;;31.89;25.52;100155.81;4478814;31;31763;-82
2024/04/14 11:13:21;;;;;;;0.57;0.55;;;;;;;31.82;22.58;100159.34;4465569;31;33711;-81
2024/04/14 11:15:48;;;;;;;0.37;0.37;;;;;;;31.51;23.78;100164.22;4463986;31;33431;-82
2024/04/14 11:18:15;;;;;;;0.40;0.40;;;;;;;31.91;22.65;100151.84;4489980;31;33909;-82
2024/04/14 11:20:49;;;;;;;1.95;0.90;;;;;;;32.10;21.65;100153.06;4464066;31;34207;-82
2024/04/14 11:23:16;;;;;;;0.30;0.20;;;;;;;32.26;21.68;100147.28;4489549;31;33540;-81
2024/04/14 11:25:44;;;;;;;0.28;0.28;;;;;;;32.17;21.66;100143.00;4489803;31;34892;-82